Nearby METAR Reports

 

KOJC - Olathe/Executive, Kansas, USA
Distance from station: N 14mi, 23km
Updated: Mon, 05-Dec-2022 7:53am CST
Mostly cloudy
Mostly cloudy
 Wind from S
Wind: S 5 mph , 7 km/h
Temperature: 36°F , 2°C
Wind Chill: 32°F , 0°C
Dew Point: 34°F , 1°C
Humidity: 93%
Barometer: 29.82 inHg , 1009.8 hPa
Clouds: Mostly cloudy
Visibility: 8 miles , 13 km
Cloud details: Mostly cloudy 3100 ft
2022/12/05 13:53 KOJC 051353Z 18004KT 8SM BKN031 02/01 A2982 RMK AO2 SLP106 T00170006
KIXD - Olathe/Industria, Kansas, USA
Distance from station: NW 15mi, 25km
Updated: Mon, 05-Dec-2022 7:53am CST
Mist, Mostly cloudy
Mist, Mostly cloudy
 Wind from S
Wind: S 7 mph , 11 km/h
Temperature: 36°F , 2°C
Wind Chill: 30°F , -1°C
Dew Point: 36°F , 2°C
Humidity: 100%
Barometer: 29.83 inHg , 1010.2 hPa
Summary: Mist
Clouds: Mostly cloudy
Visibility: 6 miles , 10 km
Cloud details: Mostly cloudy 3300 ft
2022/12/05 13:53 KIXD 051353Z 17006KT 6SM BR BKN033 02/02 A2983 RMK AO2 SLP108 T00170017
 
KLXT - Lees Summit Muni, Missouri, USA
Distance from station: NE 28mi, 46km
Updated: Mon, 05-Dec-2022 8:53am CST
Overcast
Overcast
 Wind from S
Wind: S 9 mph , 15 km/h
Temperature: 37°F , 3°C
Wind Chill: 30°F , -1°C
Dew Point: 36°F , 2°C
Humidity: 93%
Barometer: 29.85 inHg , 1010.8 hPa
Clouds: Overcast
Visibility: 10 miles , 16 km
Cloud details: Overcast 3400 ft
2022/12/05 14:53 KLXT 051453Z AUTO 19008KT 10SM OVC034 03/02 A2985 RMK AO2 SLP113 T00330022 53006
KMKC - Kansas City/Dntn, Missouri, USA
Distance from station: N 33mi, 53km
Updated: Mon, 05-Dec-2022 7:54am CST
Overcast
Overcast
 Wind from S
Wind: S 3 mph , 6 km/h
Temperature: 37°F , 3°C
Dew Point: 36°F , 2°C
Humidity: 93%
Barometer: 29.84 inHg , 1010.5 hPa
Clouds: Overcast
Visibility: 10 miles , 16 km
Cloud details: Overcast 3500 ft
2022/12/05 13:54 KMKC 051354Z 18003KT 10SM OVC035 03/02 A2984 RMK AO2 SLP108 T00280017
 
KLWC - Lawrence, Kansas, USA
Distance from station: NW 38mi, 61km
Updated: Mon, 05-Dec-2022 8:52am CST
Mist, Mostly cloudy
Mist, Mostly cloudy
 Wind from SSE
Wind: SSE 6 mph , 9 km/h
Temperature: 34°F , 1°C
Wind Chill: 29°F , -2°C
Dew Point: 32°F , 0°C
Humidity: 93%
Barometer: 29.83 inHg , 1010.2 hPa
Summary: Mist
Clouds: Mostly cloudy
Visibility: 5 miles , 8 km
Cloud details: Mostly cloudy 700 ft
2022/12/05 14:52 KLWC 051452Z AUTO 16005KT 5SM BR BKN007 01/00 A2983 RMK AO1 SLP109 T00110000 53005
KFOE - Topeka/Forbes, Kansas, USA
Distance from station: WNW 43mi, 70km
Updated: Mon, 05-Dec-2022 8:48am CST
Mist, Overcast
Mist, Overcast
 Wind from SSE
Wind: SSE 6 mph , 9 km/h
Temperature: 36°F , 2°C
Wind Chill: 31°F , -1°C
Dew Point: 34°F , 1°C
Humidity: 93%
Barometer: 29.82 inHg , 1009.8 hPa
Summary: Mist
Clouds: Overcast
Visibility: 6 miles , 10 km
Cloud details: Overcast 400 ft
2022/12/05 14:48 KFOE 051448Z 16005KT 6SM BR OVC004 02/01 A2982 RMK AO2 $
 
KMCI - Kansas City/Intl, Missouri, USA
Distance from station: N 45mi, 73km
Updated: Mon, 05-Dec-2022 7:53am CST
Mostly cloudy
Mostly cloudy
 Wind from S
Wind: S 8 mph , 13 km/h
Temperature: 34°F , 1°C
Wind Chill: 27°F , -3°C
Dew Point: 30°F , -1°C
Humidity: 87%
Barometer: 29.82 inHg , 1009.8 hPa
Clouds: Mostly cloudy
Visibility: 8 miles , 13 km
Cloud details: Partly cloudy 3500 ft
Partly cloudy 14000 ft
Mostly cloudy 20000 ft
2022/12/05 13:53 KMCI 051353Z 19007KT 8SM SCT035 SCT140 BKN200 01/M01 A2982 RMK AO2 SLP103 T00111006
KRCM - Warrensburg Skyh, Missouri, USA
Distance from station: ENE 49mi, 80km
Updated: Mon, 05-Dec-2022 8:35am CST
Clear
Clear
 Wind from calm
Wind: Calm
Temperature: 36°F , 2°C
Dew Point: 34°F , 1°C
Humidity: 93%
Barometer: 29.85 inHg , 1010.8 hPa
Clouds: Clear
Visibility: 10 miles , 16 km
2022/12/05 14:35 KRCM 051435Z AUTO 00000KT 10SM CLR 02/01 A2985 RMK AO2